sensor_id;sensor_type;location;lat;lon;timestamp;pressure;altitude;pressure_sealevel;temperature
35582;BMP180;21687;48.900;9.188;2023-02-24T00:02:01;97998.00;;;8.30
35582;BMP180;21687;48.900;9.188;2023-02-24T00:04:35;97988.00;;;8.30
35582;BMP180;21687;48.900;9.188;2023-02-24T00:07:03;97989.00;;;8.30
35582;BMP180;21687;48.900;9.188;2023-02-24T00:09:31;97993.00;;;8.30
35582;BMP180;21687;48.900;9.188;2023-02-24T00:12:07;98002.00;;;8.30
35582;BMP180;21687;48.900;9.188;2023-02-24T00:14:35;98002.00;;;8.30
35582;BMP180;21687;48.900;9.188;2023-02-24T00:17:02;97993.00;;;8.30
35582;BMP180;21687;48.900;9.188;2023-02-24T00:19:30;97997.00;;;8.20
35582;BMP180;21687;48.900;9.188;2023-02-24T00:21:57;97987.00;;;8.20
35582;BMP180;21687;48.900;9.188;2023-02-24T00:24:25;97986.00;;;8.20
35582;BMP180;21687;48.900;9.188;2023-02-24T00:26:57;97982.00;;;8.10
35582;BMP180;21687;48.900;9.188;2023-02-24T00:29:25;97993.00;;;8.20
35582;BMP180;21687;48.900;9.188;2023-02-24T00:31:53;97980.00;;;8.10
35582;BMP180;21687;48.900;9.188;2023-02-24T00:34:28;97973.00;;;8.10
35582;BMP180;21687;48.900;9.188;2023-02-24T00:36:56;97968.00;;;8.10
35582;BMP180;21687;48.900;9.188;2023-02-24T00:39:22;97968.00;;;8.00
35582;BMP180;21687;48.900;9.188;2023-02-24T00:42:00;97965.00;;;8.00
35582;BMP180;21687;48.900;9.188;2023-02-24T00:44:35;97964.00;;;8.00
35582;BMP180;21687;48.900;9.188;2023-02-24T00:47:03;97965.00;;;8.00
35582;BMP180;21687;48.900;9.188;2023-02-24T00:49:30;97958.00;;;8.00
35582;BMP180;21687;48.900;9.188;2023-02-24T00:51:58;97959.00;;;7.90
35582;BMP180;21687;48.900;9.188;2023-02-24T00:54:26;97962.00;;;7.90
35582;BMP180;21687;48.900;9.188;2023-02-24T00:56:56;97958.00;;;7.90
35582;BMP180;21687;48.900;9.188;2023-02-24T00:59:23;97963.00;;;7.90
35582;BMP180;21687;48.900;9.188;2023-02-24T01:01:50;97955.00;;;7.90
35582;BMP180;21687;48.900;9.188;2023-02-24T01:04:17;97957.00;;;7.80
35582;BMP180;21687;48.900;9.188;2023-02-24T01:06:47;97961.00;;;7.70
35582;BMP180;21687;48.900;9.188;2023-02-24T01:09:16;97959.00;;;7.70
35582;BMP180;21687;48.900;9.188;2023-02-24T01:11:45;97946.00;;;7.80
35582;BMP180;21687;48.900;9.188;2023-02-24T01:14:32;97949.00;;;7.70
35582;BMP180;21687;48.900;9.188;2023-02-24T01:16:59;97952.00;;;7.70
35582;BMP180;21687;48.900;9.188;2023-02-24T01:19:29;97951.00;;;7.60
35582;BMP180;21687;48.900;9.188;2023-02-24T01:21:57;97935.00;;;7.60
35582;BMP180;21687;48.900;9.188;2023-02-24T01:24:24;97925.00;;;7.60
35582;BMP180;21687;48.900;9.188;2023-02-24T01:26:51;97933.00;;;7.60
35582;BMP180;21687;48.900;9.188;2023-02-24T01:29:17;97939.00;;;7.60
35582;BMP180;21687;48.900;9.188;2023-02-24T01:31:44;97925.00;;;7.60
35582;BMP180;21687;48.900;9.188;2023-02-24T01:34:11;97932.00;;;7.60
35582;BMP180;21687;48.900;9.188;2023-02-24T01:36:40;97929.00;;;7.60
35582;BMP180;21687;48.900;9.188;2023-02-24T01:39:11;97921.00;;;7.60
35582;BMP180;21687;48.900;9.188;2023-02-24T01:41:44;97919.00;;;7.70
35582;BMP180;21687;48.900;9.188;2023-02-24T01:46:43;97931.00;;;7.70
35582;BMP180;21687;48.900;9.188;2023-02-24T01:49:23;97925.00;;;7.70
35582;BMP180;21687;48.900;9.188;2023-02-24T01:51:58;97928.00;;;7.70
35582;BMP180;21687;48.900;9.188;2023-02-24T01:54:34;97916.00;;;7.60
35582;BMP180;21687;48.900;9.188;2023-02-24T01:57:04;97917.00;;;7.70
35582;BMP180;21687;48.900;9.188;2023-02-24T01:59:33;97924.00;;;7.70
35582;BMP180;21687;48.900;9.188;2023-02-24T02:02:03;97910.00;;;7.80
35582;BMP180;21687;48.900;9.188;2023-02-24T02:04:45;97909.00;;;7.70
35582;BMP180;21687;48.900;9.188;2023-02-24T02:07:15;97914.00;;;7.60
35582;BMP180;21687;48.900;9.188;2023-02-24T02:09:44;97915.00;;;7.70
35582;BMP180;21687;48.900;9.188;2023-02-24T02:12:11;97912.00;;;7.70
35582;BMP180;21687;48.900;9.188;2023-02-24T02:14:47;97901.00;;;7.60
35582;BMP180;21687;48.900;9.188;2023-02-24T02:17:31;97908.00;;;7.60
35582;BMP180;21687;48.900;9.188;2023-02-24T02:31:30;97893.00;;;7.50
35582;BMP180;21687;48.900;9.188;2023-02-24T02:40:00;97888.00;;;7.50
35582;BMP180;21687;48.900;9.188;2023-02-24T02:45:47;97876.00;;;7.60
35582;BMP180;21687;48.900;9.188;2023-02-24T02:48:19;97881.00;;;7.60
35582;BMP180;21687;48.900;9.188;2023-02-24T02:50:51;97875.00;;;7.50
35582;BMP180;21687;48.900;9.188;2023-02-24T02:56:29;97873.00;;;7.40
35582;BMP180;21687;48.900;9.188;2023-02-24T02:58:58;97867.00;;;7.50
35582;BMP180;21687;48.900;9.188;2023-02-24T03:01:47;97861.00;;;7.50
35582;BMP180;21687;48.900;9.188;2023-02-24T03:04:15;97860.00;;;7.50
35582;BMP180;21687;48.900;9.188;2023-02-24T03:06:56;97854.00;;;7.60
35582;BMP180;21687;48.900;9.188;2023-02-24T03:09:31;97852.00;;;7.50
35582;BMP180;21687;48.900;9.188;2023-02-24T03:12:05;97848.00;;;7.50
35582;BMP180;21687;48.900;9.188;2023-02-24T03:14:37;97848.00;;;7.40
35582;BMP180;21687;48.900;9.188;2023-02-24T03:17:06;97850.00;;;7.40
35582;BMP180;21687;48.900;9.188;2023-02-24T03:19:36;97844.00;;;7.30
35582;BMP180;21687;48.900;9.188;2023-02-24T03:22:20;97846.00;;;7.30
35582;BMP180;21687;48.900;9.188;2023-02-24T03:24:49;97838.00;;;7.30
35582;BMP180;21687;48.900;9.188;2023-02-24T03:27:39;97842.00;;;7.40
35582;BMP180;21687;48.900;9.188;2023-02-24T03:30:25;97844.00;;;7.40
35582;BMP180;21687;48.900;9.188;2023-02-24T03:35:32;97841.00;;;7.40
35582;BMP180;21687;48.900;9.188;2023-02-24T03:38:02;97840.00;;;7.40
35582;BMP180;21687;48.900;9.188;2023-02-24T03:40:29;97828.00;;;7.40
35582;BMP180;21687;48.900;9.188;2023-02-24T03:43:28;97841.00;;;7.40
35582;BMP180;21687;48.900;9.188;2023-02-24T03:45:55;97833.00;;;7.40
35582;BMP180;21687;48.900;9.188;2023-02-24T03:48:23;97836.00;;;7.40
35582;BMP180;21687;48.900;9.188;2023-02-24T03:50:50;97808.00;;;7.30
35582;BMP180;21687;48.900;9.188;2023-02-24T03:53:43;97830.00;;;7.30
35582;BMP180;21687;48.900;9.188;2023-02-24T03:59:03;97838.00;;;7.20
35582;BMP180;21687;48.900;9.188;2023-02-24T04:04:24;97824.00;;;7.30
35582;BMP180;21687;48.900;9.188;2023-02-24T04:09:42;97827.00;;;7.30
35582;BMP180;21687;48.900;9.188;2023-02-24T04:12:38;97831.00;;;7.20
35582;BMP180;21687;48.900;9.188;2023-02-24T04:15:21;97838.00;;;7.20
35582;BMP180;21687;48.900;9.188;2023-02-24T04:17:51;97833.00;;;7.20
35582;BMP180;21687;48.900;9.188;2023-02-24T04:20:21;97835.00;;;7.10
35582;BMP180;21687;48.900;9.188;2023-02-24T04:22:55;97836.00;;;7.10
35582;BMP180;21687;48.900;9.188;2023-02-24T04:25:25;97845.00;;;7.20
35582;BMP180;21687;48.900;9.188;2023-02-24T04:27:57;97833.00;;;7.20
35582;BMP180;21687;48.900;9.188;2023-02-24T04:30:27;97834.00;;;7.10
35582;BMP180;21687;48.900;9.188;2023-02-24T04:32:54;97821.00;;;7.10
35582;BMP180;21687;48.900;9.188;2023-02-24T04:35:21;97835.00;;;7.00
35582;BMP180;21687;48.900;9.188;2023-02-24T04:37:49;97823.00;;;7.10
35582;BMP180;21687;48.900;9.188;2023-02-24T04:40:17;97818.00;;;7.10
35582;BMP180;21687;48.900;9.188;2023-02-24T04:42:56;97821.00;;;7.10
35582;BMP180;21687;48.900;9.188;2023-02-24T04:45:28;97817.00;;;7.10
35582;BMP180;21687;48.900;9.188;2023-02-24T04:47:57;97814.00;;;7.10
35582;BMP180;21687;48.900;9.188;2023-02-24T04:50:30;97812.00;;;7.10
35582;BMP180;21687;48.900;9.188;2023-02-24T04:52:59;97805.00;;;7.10
35582;BMP180;21687;48.900;9.188;2023-02-24T04:55:28;97795.00;;;7.10
35582;BMP180;21687;48.900;9.188;2023-02-24T04:57:55;97793.00;;;7.00
35582;BMP180;21687;48.900;9.188;2023-02-24T05:00:22;97787.00;;;7.00
35582;BMP180;21687;48.900;9.188;2023-02-24T05:02:53;97794.00;;;7.00
35582;BMP180;21687;48.900;9.188;2023-02-24T05:05:23;97790.00;;;7.00
35582;BMP180;21687;48.900;9.188;2023-02-24T05:08:00;97774.00;;;7.00
35582;BMP180;21687;48.900;9.188;2023-02-24T05:10:36;97770.00;;;7.00
35582;BMP180;21687;48.900;9.188;2023-02-24T05:13:03;97779.00;;;6.90
35582;BMP180;21687;48.900;9.188;2023-02-24T05:15:32;97773.00;;;7.00
35582;BMP180;21687;48.900;9.188;2023-02-24T05:18:03;97768.00;;;7.00
35582;BMP180;21687;48.900;9.188;2023-02-24T05:20:40;97761.00;;;7.00
35582;BMP180;21687;48.900;9.188;2023-02-24T05:23:30;97754.00;;;7.00
35582;BMP180;21687;48.900;9.188;2023-02-24T05:25:57;97754.00;;;7.00
35582;BMP180;21687;48.900;9.188;2023-02-24T05:28:25;97749.00;;;7.00
35582;BMP180;21687;48.900;9.188;2023-02-24T05:30:52;97751.00;;;6.90
35582;BMP180;21687;48.900;9.188;2023-02-24T05:33:21;97740.00;;;6.90
35582;BMP180;21687;48.900;9.188;2023-02-24T05:35:50;97720.00;;;6.90
35582;BMP180;21687;48.900;9.188;2023-02-24T05:38:17;97739.00;;;6.90
35582;BMP180;21687;48.900;9.188;2023-02-24T05:40:48;97741.00;;;6.90
35582;BMP180;21687;48.900;9.188;2023-02-24T05:43:14;97738.00;;;6.90
35582;BMP180;21687;48.900;9.188;2023-02-24T05:45:47;97736.00;;;6.90
35582;BMP180;21687;48.900;9.188;2023-02-24T05:48:13;97735.00;;;6.90
35582;BMP180;21687;48.900;9.188;2023-02-24T05:50:41;97736.00;;;6.80
35582;BMP180;21687;48.900;9.188;2023-02-24T05:53:12;97731.00;;;6.80
35582;BMP180;21687;48.900;9.188;2023-02-24T05:55:38;97736.00;;;6.90
35582;BMP180;21687;48.900;9.188;2023-02-24T05:58:04;97735.00;;;6.80
35582;BMP180;21687;48.900;9.188;2023-02-24T06:00:32;97739.00;;;6.80
35582;BMP180;21687;48.900;9.188;2023-02-24T06:03:04;97730.00;;;6.70
35582;BMP180;21687;48.900;9.188;2023-02-24T06:05:42;97727.00;;;6.70
35582;BMP180;21687;48.900;9.188;2023-02-24T06:08:09;97721.00;;;6.70
35582;BMP180;21687;48.900;9.188;2023-02-24T06:10:38;97723.00;;;6.60
35582;BMP180;21687;48.900;9.188;2023-02-24T06:13:06;97723.00;;;6.70
35582;BMP180;21687;48.900;9.188;2023-02-24T06:15:34;97725.00;;;6.70
35582;BMP180;21687;48.900;9.188;2023-02-24T06:18:01;97718.00;;;6.60
35582;BMP180;21687;48.900;9.188;2023-02-24T06:20:28;97718.00;;;6.60
35582;BMP180;21687;48.900;9.188;2023-02-24T06:22:56;97712.00;;;6.60
35582;BMP180;21687;48.900;9.188;2023-02-24T06:25:26;97724.00;;;6.50
35582;BMP180;21687;48.900;9.188;2023-02-24T06:27:55;97714.00;;;6.50
35582;BMP180;21687;48.900;9.188;2023-02-24T06:30:23;97711.00;;;6.60
35582;BMP180;21687;48.900;9.188;2023-02-24T06:32:50;97707.00;;;6.60
35582;BMP180;21687;48.900;9.188;2023-02-24T06:35:17;97712.00;;;6.60
35582;BMP180;21687;48.900;9.188;2023-02-24T06:37:43;97702.00;;;6.60
35582;BMP180;21687;48.900;9.188;2023-02-24T06:40:10;97702.00;;;6.50
35582;BMP180;21687;48.900;9.188;2023-02-24T06:42:58;97706.00;;;6.60
35582;BMP180;21687;48.900;9.188;2023-02-24T06:45:25;97709.00;;;6.60
35582;BMP180;21687;48.900;9.188;2023-02-24T06:47:51;97708.00;;;6.60
35582;BMP180;21687;48.900;9.188;2023-02-24T06:50:19;97716.00;;;6.70
35582;BMP180;21687;48.900;9.188;2023-02-24T06:52:49;97699.00;;;6.60
35582;BMP180;21687;48.900;9.188;2023-02-24T06:55:16;97699.00;;;6.60
35582;BMP180;21687;48.900;9.188;2023-02-24T06:57:53;97700.00;;;6.60
35582;BMP180;21687;48.900;9.188;2023-02-24T07:00:27;97702.00;;;6.70
35582;BMP180;21687;48.900;9.188;2023-02-24T07:03:08;97700.00;;;6.60
35582;BMP180;21687;48.900;9.188;2023-02-24T07:05:45;97693.00;;;6.60
35582;BMP180;21687;48.900;9.188;2023-02-24T07:08:17;97699.00;;;6.70
35582;BMP180;21687;48.900;9.188;2023-02-24T07:10:44;97694.00;;;6.70
35582;BMP180;21687;48.900;9.188;2023-02-24T07:13:10;97699.00;;;6.80
35582;BMP180;21687;48.900;9.188;2023-02-24T07:15:38;97699.00;;;6.70
35582;BMP180;21687;48.900;9.188;2023-02-24T07:18:04;97698.00;;;6.80
35582;BMP180;21687;48.900;9.188;2023-02-24T07:20:37;97677.00;;;6.80
35582;BMP180;21687;48.900;9.188;2023-02-24T07:23:08;97696.00;;;6.90
35582;BMP180;21687;48.900;9.188;2023-02-24T07:25:35;97687.00;;;7.00
35582;BMP180;21687;48.900;9.188;2023-02-24T07:28:01;97685.00;;;7.10
35582;BMP180;21687;48.900;9.188;2023-02-24T07:30:31;97697.00;;;7.10
35582;BMP180;21687;48.900;9.188;2023-02-24T07:32:58;97688.00;;;7.20
35582;BMP180;21687;48.900;9.188;2023-02-24T07:35:25;97692.00;;;7.10
35582;BMP180;21687;48.900;9.188;2023-02-24T07:37:52;97690.00;;;7.00
35582;BMP180;21687;48.900;9.188;2023-02-24T07:40:20;97688.00;;;7.00
35582;BMP180;21687;48.900;9.188;2023-02-24T07:42:52;97690.00;;;7.00
35582;BMP180;21687;48.900;9.188;2023-02-24T07:45:19;97685.00;;;6.90
35582;BMP180;21687;48.900;9.188;2023-02-24T07:47:45;97684.00;;;6.90
35582;BMP180;21687;48.900;9.188;2023-02-24T07:50:12;97679.00;;;6.90
35582;BMP180;21687;48.900;9.188;2023-02-24T07:52:46;97677.00;;;7.00
35582;BMP180;21687;48.900;9.188;2023-02-24T07:55:13;97680.00;;;7.00
35582;BMP180;21687;48.900;9.188;2023-02-24T07:57:43;97682.00;;;6.90
35582;BMP180;21687;48.900;9.188;2023-02-24T08:00:16;97672.00;;;7.00
35582;BMP180;21687;48.900;9.188;2023-02-24T08:02:49;97673.00;;;7.00
35582;BMP180;21687;48.900;9.188;2023-02-24T08:05:16;97668.00;;;7.20
35582;BMP180;21687;48.900;9.188;2023-02-24T08:07:46;97665.00;;;7.30
35582;BMP180;21687;48.900;9.188;2023-02-24T08:10:18;97671.00;;;7.30
35582;BMP180;21687;48.900;9.188;2023-02-24T08:12:53;97660.00;;;7.40
35582;BMP180;21687;48.900;9.188;2023-02-24T08:15:21;97665.00;;;7.60
35582;BMP180;21687;48.900;9.188;2023-02-24T08:17:56;97662.00;;;7.60
35582;BMP180;21687;48.900;9.188;2023-02-24T08:20:27;97665.00;;;7.60
35582;BMP180;21687;48.900;9.188;2023-02-24T08:22:55;97665.00;;;7.60
35582;BMP180;21687;48.900;9.188;2023-02-24T08:25:28;97657.00;;;7.60
35582;BMP180;21687;48.900;9.188;2023-02-24T08:28:07;97654.00;;;7.60
35582;BMP180;21687;48.900;9.188;2023-02-24T08:30:42;97658.00;;;7.60
35582;BMP180;21687;48.900;9.188;2023-02-24T08:33:17;97656.00;;;7.60
35582;BMP180;21687;48.900;9.188;2023-02-24T08:35:44;97647.00;;;7.50
35582;BMP180;21687;48.900;9.188;2023-02-24T08:38:14;97654.00;;;7.40
35582;BMP180;21687;48.900;9.188;2023-02-24T08:40:44;97646.00;;;7.50
35582;BMP180;21687;48.900;9.188;2023-02-24T08:43:21;97641.00;;;7.50
35582;BMP180;21687;48.900;9.188;2023-02-24T08:45:50;97636.00;;;7.60
35582;BMP180;21687;48.900;9.188;2023-02-24T08:48:19;97640.00;;;7.60
35582;BMP180;21687;48.900;9.188;2023-02-24T08:51:00;97633.00;;;7.60
35582;BMP180;21687;48.900;9.188;2023-02-24T08:53:27;97633.00;;;7.70
35582;BMP180;21687;48.900;9.188;2023-02-24T08:55:59;97629.00;;;7.70
35582;BMP180;21687;48.900;9.188;2023-02-24T08:58:25;97623.00;;;7.60
35582;BMP180;21687;48.900;9.188;2023-02-24T09:00:53;97629.00;;;7.60
35582;BMP180;21687;48.900;9.188;2023-02-24T09:03:25;97628.00;;;7.60
35582;BMP180;21687;48.900;9.188;2023-02-24T09:08:26;97626.00;;;7.70
35582;BMP180;21687;48.900;9.188;2023-02-24T09:11:02;97634.00;;;7.70
35582;BMP180;21687;48.900;9.188;2023-02-24T09:13:37;97611.00;;;7.60
35582;BMP180;21687;48.900;9.188;2023-02-24T09:16:08;97630.00;;;7.60
35582;BMP180;21687;48.900;9.188;2023-02-24T09:18:41;97627.00;;;7.80
35582;BMP180;21687;48.900;9.188;2023-02-24T09:21:13;97614.00;;;7.80
35582;BMP180;21687;48.900;9.188;2023-02-24T09:23:58;97620.00;;;8.00
35582;BMP180;21687;48.900;9.188;2023-02-24T09:26:28;97612.00;;;8.10
35582;BMP180;21687;48.900;9.188;2023-02-24T09:28:58;97615.00;;;8.20
35582;BMP180;21687;48.900;9.188;2023-02-24T09:31:24;97615.00;;;8.20
35582;BMP180;21687;48.900;9.188;2023-02-24T09:34:07;97624.00;;;8.30
35582;BMP180;21687;48.900;9.188;2023-02-24T09:36:36;97620.00;;;8.20
35582;BMP180;21687;48.900;9.188;2023-02-24T09:39:10;97606.00;;;8.30
35582;BMP180;21687;48.900;9.188;2023-02-24T09:41:50;97615.00;;;8.50
35582;BMP180;21687;48.900;9.188;2023-02-24T09:44:45;97608.00;;;8.40
35582;BMP180;21687;48.900;9.188;2023-02-24T09:47:18;97608.00;;;8.40
35582;BMP180;21687;48.900;9.188;2023-02-24T09:52:32;97605.00;;;8.40
35582;BMP180;21687;48.900;9.188;2023-02-24T09:58:16;97582.00;;;8.60
35582;BMP180;21687;48.900;9.188;2023-02-24T10:01:01;97590.00;;;8.50
35582;BMP180;21687;48.900;9.188;2023-02-24T10:03:55;97594.00;;;8.50
35582;BMP180;21687;48.900;9.188;2023-02-24T10:06:45;97585.00;;;8.40
35582;BMP180;21687;48.900;9.188;2023-02-24T10:12:05;97585.00;;;8.70
35582;BMP180;21687;48.900;9.188;2023-02-24T10:17:40;97587.00;;;8.70
35582;BMP180;21687;48.900;9.188;2023-02-24T10:20:18;97581.00;;;8.60
35582;BMP180;21687;48.900;9.188;2023-02-24T10:25:41;97590.00;;;8.30
35582;BMP180;21687;48.900;9.188;2023-02-24T10:28:36;97589.00;;;8.30
35582;BMP180;21687;48.900;9.188;2023-02-24T10:31:16;97585.00;;;8.30
35582;BMP180;21687;48.900;9.188;2023-02-24T10:33:58;97596.00;;;8.20
35582;BMP180;21687;48.900;9.188;2023-02-24T10:36:25;97583.00;;;8.00
35582;BMP180;21687;48.900;9.188;2023-02-24T10:39:21;97581.00;;;8.10
35582;BMP180;21687;48.900;9.188;2023-02-24T10:41:56;97575.00;;;8.10
35582;BMP180;21687;48.900;9.188;2023-02-24T10:44:24;97576.00;;;8.10
35582;BMP180;21687;48.900;9.188;2023-02-24T10:47:05;97567.00;;;8.10
35582;BMP180;21687;48.900;9.188;2023-02-24T10:49:46;97565.00;;;8.20
35582;BMP180;21687;48.900;9.188;2023-02-24T10:52:36;97558.00;;;8.10
35582;BMP180;21687;48.900;9.188;2023-02-24T10:55:33;97549.00;;;8.10
35582;BMP180;21687;48.900;9.188;2023-02-24T10:58:18;97546.00;;;8.00
35582;BMP180;21687;48.900;9.188;2023-02-24T11:00:54;97513.00;;;8.00
35582;BMP180;21687;48.900;9.188;2023-02-24T11:03:58;97548.00;;;8.20
35582;BMP180;21687;48.900;9.188;2023-02-24T11:06:38;97533.00;;;8.20
35582;BMP180;21687;48.900;9.188;2023-02-24T11:09:19;97539.00;;;8.20
35582;BMP180;21687;48.900;9.188;2023-02-24T11:11:53;97532.00;;;8.20
35582;BMP180;21687;48.900;9.188;2023-02-24T11:14:54;97526.00;;;8.40
35582;BMP180;21687;48.900;9.188;2023-02-24T11:17:54;97522.00;;;8.50
35582;BMP180;21687;48.900;9.188;2023-02-24T11:20:37;97518.00;;;8.60
35582;BMP180;21687;48.900;9.188;2023-02-24T11:23:10;97516.00;;;8.80
35582;BMP180;21687;48.900;9.188;2023-02-24T11:25:53;97496.00;;;8.70
35582;BMP180;21687;48.900;9.188;2023-02-24T11:31:46;97502.00;;;9.00
35582;BMP180;21687;48.900;9.188;2023-02-24T11:42:24;97478.00;;;8.90
35582;BMP180;21687;48.900;9.188;2023-02-24T11:47:52;97475.00;;;9.30
35582;BMP180;21687;48.900;9.188;2023-02-24T11:50:49;97470.00;;;9.20
35582;BMP180;21687;48.900;9.188;2023-02-24T11:53:25;97453.00;;;9.40
35582;BMP180;21687;48.900;9.188;2023-02-24T11:56:01;97437.00;;;9.50
35582;BMP180;21687;48.900;9.188;2023-02-24T11:58:53;97422.00;;;9.50
35582;BMP180;21687;48.900;9.188;2023-02-24T12:01:45;97419.00;;;9.40
35582;BMP180;21687;48.900;9.188;2023-02-24T12:07:28;97402.00;;;8.90
35582;BMP180;21687;48.900;9.188;2023-02-24T12:15:37;97407.00;;;9.20
35582;BMP180;21687;48.900;9.188;2023-02-24T12:20:58;97387.00;;;9.30
35582;BMP180;21687;48.900;9.188;2023-02-24T12:23:36;97390.00;;;9.40
35582;BMP180;21687;48.900;9.188;2023-02-24T12:34:46;97352.00;;;9.60
35582;BMP180;21687;48.900;9.188;2023-02-24T12:40:26;97352.00;;;9.60
35582;BMP180;21687;48.900;9.188;2023-02-24T12:43:22;97352.00;;;9.70
35582;BMP180;21687;48.900;9.188;2023-02-24T12:49:06;97337.00;;;10.10
35582;BMP180;21687;48.900;9.188;2023-02-24T12:54:23;97326.00;;;10.30
35582;BMP180;21687;48.900;9.188;2023-02-24T12:59:46;97341.00;;;10.50
35582;BMP180;21687;48.900;9.188;2023-02-24T13:05:02;97326.00;;;10.00
35582;BMP180;21687;48.900;9.188;2023-02-24T13:15:59;97325.00;;;10.40
35582;BMP180;21687;48.900;9.188;2023-02-24T13:18:33;97324.00;;;10.40
35582;BMP180;21687;48.900;9.188;2023-02-24T13:23:41;97269.00;;;10.00
35582;BMP180;21687;48.900;9.188;2023-02-24T13:26:07;97310.00;;;9.70
35582;BMP180;21687;48.900;9.188;2023-02-24T13:28:36;97304.00;;;9.90
35582;BMP180;21687;48.900;9.188;2023-02-24T13:31:09;97300.00;;;9.80
35582;BMP180;21687;48.900;9.188;2023-02-24T13:33:37;97288.00;;;9.70
35582;BMP180;21687;48.900;9.188;2023-02-24T13:36:09;97285.00;;;9.50
35582;BMP180;21687;48.900;9.188;2023-02-24T13:38:43;97284.00;;;9.60
35582;BMP180;21687;48.900;9.188;2023-02-24T13:41:20;97277.00;;;9.50
35582;BMP180;21687;48.900;9.188;2023-02-24T13:44:02;97270.00;;;9.50
35582;BMP180;21687;48.900;9.188;2023-02-24T13:46:44;97270.00;;;9.60
35582;BMP180;21687;48.900;9.188;2023-02-24T13:57:43;97249.00;;;9.40
35582;BMP180;21687;48.900;9.188;2023-02-24T14:03:24;97258.00;;;9.50
35582;BMP180;21687;48.900;9.188;2023-02-24T14:05:52;97254.00;;;9.50
35582;BMP180;21687;48.900;9.188;2023-02-24T14:08:23;97235.00;;;9.40
35582;BMP180;21687;48.900;9.188;2023-02-24T14:10:56;97238.00;;;9.40
35582;BMP180;21687;48.900;9.188;2023-02-24T14:13:25;97246.00;;;9.40
35582;BMP180;21687;48.900;9.188;2023-02-24T14:15:54;97240.00;;;9.30
35582;BMP180;21687;48.900;9.188;2023-02-24T14:18:27;97232.00;;;9.20
35582;BMP180;21687;48.900;9.188;2023-02-24T14:20:55;97232.00;;;9.20
35582;BMP180;21687;48.900;9.188;2023-02-24T14:23:26;97232.00;;;9.00
35582;BMP180;21687;48.900;9.188;2023-02-24T14:25:58;97236.00;;;9.10
35582;BMP180;21687;48.900;9.188;2023-02-24T14:28:36;97232.00;;;8.90
35582;BMP180;21687;48.900;9.188;2023-02-24T14:31:09;97222.00;;;8.90
35582;BMP180;21687;48.900;9.188;2023-02-24T14:33:38;97224.00;;;8.90
35582;BMP180;21687;48.900;9.188;2023-02-24T14:36:13;97211.00;;;8.90
35582;BMP180;21687;48.900;9.188;2023-02-24T14:38:42;97210.00;;;8.90
35582;BMP180;21687;48.900;9.188;2023-02-24T14:41:23;97215.00;;;8.90
35582;BMP180;21687;48.900;9.188;2023-02-24T14:43:51;97211.00;;;8.80
35582;BMP180;21687;48.900;9.188;2023-02-24T14:46:18;97200.00;;;8.80
35582;BMP180;21687;48.900;9.188;2023-02-24T14:48:45;97188.00;;;8.80
35582;BMP180;21687;48.900;9.188;2023-02-24T14:51:26;97198.00;;;8.80
35582;BMP180;21687;48.900;9.188;2023-02-24T14:53:58;97185.00;;;8.70
35582;BMP180;21687;48.900;9.188;2023-02-24T14:56:31;97183.00;;;8.80
35582;BMP180;21687;48.900;9.188;2023-02-24T14:59:29;97183.00;;;8.80
35582;BMP180;21687;48.900;9.188;2023-02-24T15:01:57;97186.00;;;8.70
35582;BMP180;21687;48.900;9.188;2023-02-24T15:07:02;97183.00;;;8.80
35582;BMP180;21687;48.900;9.188;2023-02-24T15:09:39;97174.00;;;8.80
35582;BMP180;21687;48.900;9.188;2023-02-24T15:12:19;97175.00;;;8.80
35582;BMP180;21687;48.900;9.188;2023-02-24T15:14:56;97166.00;;;8.80
35582;BMP180;21687;48.900;9.188;2023-02-24T15:17:24;97162.00;;;8.70
35582;BMP180;21687;48.900;9.188;2023-02-24T15:19:50;97152.00;;;8.70
35582;BMP180;21687;48.900;9.188;2023-02-24T15:22:31;97161.00;;;8.70
35582;BMP180;21687;48.900;9.188;2023-02-24T15:25:19;97150.00;;;8.70
35582;BMP180;21687;48.900;9.188;2023-02-24T15:27:55;97140.00;;;8.70
35582;BMP180;21687;48.900;9.188;2023-02-24T15:30:26;97143.00;;;8.80
35582;BMP180;21687;48.900;9.188;2023-02-24T15:33:01;97133.00;;;8.80
35582;BMP180;21687;48.900;9.188;2023-02-24T15:35:29;97129.00;;;8.80
35582;BMP180;21687;48.900;9.188;2023-02-24T15:37:56;97132.00;;;8.80
35582;BMP180;21687;48.900;9.188;2023-02-24T15:40:25;97138.00;;;8.80
35582;BMP180;21687;48.900;9.188;2023-02-24T15:43:06;97144.00;;;8.80
35582;BMP180;21687;48.900;9.188;2023-02-24T15:45:37;97119.00;;;8.70
35582;BMP180;21687;48.900;9.188;2023-02-24T15:48:20;97128.00;;;8.70
35582;BMP180;21687;48.900;9.188;2023-02-24T15:50:47;97128.00;;;8.70
35582;BMP180;21687;48.900;9.188;2023-02-24T15:53:13;97112.00;;;8.70
35582;BMP180;21687;48.900;9.188;2023-02-24T15:55:40;97118.00;;;8.70
35582;BMP180;21687;48.900;9.188;2023-02-24T15:58:14;97120.00;;;8.70
35582;BMP180;21687;48.900;9.188;2023-02-24T16:00:42;97123.00;;;8.70
35582;BMP180;21687;48.900;9.188;2023-02-24T16:03:08;97104.00;;;8.70
35582;BMP180;21687;48.900;9.188;2023-02-24T16:05:35;97102.00;;;8.60
35582;BMP180;21687;48.900;9.188;2023-02-24T16:08:01;97108.00;;;8.60
35582;BMP180;21687;48.900;9.188;2023-02-24T16:10:28;97104.00;;;8.60
35582;BMP180;21687;48.900;9.188;2023-02-24T16:12:56;97105.00;;;8.50
35582;BMP180;21687;48.900;9.188;2023-02-24T16:15:27;97094.00;;;8.50
35582;BMP180;21687;48.900;9.188;2023-02-24T16:17:55;97088.00;;;8.40
35582;BMP180;21687;48.900;9.188;2023-02-24T16:20:27;97092.00;;;8.40
35582;BMP180;21687;48.900;9.188;2023-02-24T16:23:02;97082.00;;;8.40
35582;BMP180;21687;48.900;9.188;2023-02-24T16:25:38;97091.00;;;8.40
35582;BMP180;21687;48.900;9.188;2023-02-24T16:28:05;97094.00;;;8.40
35582;BMP180;21687;48.900;9.188;2023-02-24T16:30:31;97092.00;;;8.30
35582;BMP180;21687;48.900;9.188;2023-02-24T16:33:00;97104.00;;;8.30
35582;BMP180;21687;48.900;9.188;2023-02-24T16:35:27;97102.00;;;8.30
35582;BMP180;21687;48.900;9.188;2023-02-24T16:37:54;97100.00;;;8.30
35582;BMP180;21687;48.900;9.188;2023-02-24T16:40:26;97098.00;;;8.30
35582;BMP180;21687;48.900;9.188;2023-02-24T16:42:55;97091.00;;;8.30
35582;BMP180;21687;48.900;9.188;2023-02-24T16:45:26;97092.00;;;8.20
35582;BMP180;21687;48.900;9.188;2023-02-24T16:47:52;97088.00;;;8.30
35582;BMP180;21687;48.900;9.188;2023-02-24T16:50:32;97085.00;;;8.20
35582;BMP180;21687;48.900;9.188;2023-02-24T16:53:00;97082.00;;;8.20
35582;BMP180;21687;48.900;9.188;2023-02-24T16:55:26;97088.00;;;8.20
35582;BMP180;21687;48.900;9.188;2023-02-24T16:57:53;97088.00;;;8.10
35582;BMP180;21687;48.900;9.188;2023-02-24T17:00:19;97086.00;;;8.10
35582;BMP180;21687;48.900;9.188;2023-02-24T17:02:46;97076.00;;;8.10